sensor_id;sensor_type;location;lat;lon;timestamp;temperature;humidity
16995;DHT22;8614;48.522;9.206;2023-08-24T00:00:33;19.40;99.90
16995;DHT22;8614;48.522;9.206;2023-08-24T00:03:01;19.40;99.90
16995;DHT22;8614;48.522;9.206;2023-08-24T00:05:29;19.40;99.90
16995;DHT22;8614;48.522;9.206;2023-08-24T00:07:55;19.40;99.90
16995;DHT22;8614;48.522;9.206;2023-08-24T00:10:22;19.30;99.90
16995;DHT22;8614;48.522;9.206;2023-08-24T00:12:50;19.30;99.90
16995;DHT22;8614;48.522;9.206;2023-08-24T00:15:17;19.30;99.90
16995;DHT22;8614;48.522;9.206;2023-08-24T00:17:44;19.30;99.90
16995;DHT22;8614;48.522;9.206;2023-08-24T00:20:11;19.30;99.90
16995;DHT22;8614;48.522;9.206;2023-08-24T00:22:39;19.30;99.90
16995;DHT22;8614;48.522;9.206;2023-08-24T00:25:06;19.30;99.90
16995;DHT22;8614;48.522;9.206;2023-08-24T00:27:34;19.30;99.90
16995;DHT22;8614;48.522;9.206;2023-08-24T00:30:03;19.20;99.90
16995;DHT22;8614;48.522;9.206;2023-08-24T00:32:30;19.20;99.90
16995;DHT22;8614;48.522;9.206;2023-08-24T00:34:59;19.10;99.90
16995;DHT22;8614;48.522;9.206;2023-08-24T00:37:27;19.10;99.90
16995;DHT22;8614;48.522;9.206;2023-08-24T00:39:55;19.10;99.90
16995;DHT22;8614;48.522;9.206;2023-08-24T00:42:22;19.10;99.90
16995;DHT22;8614;48.522;9.206;2023-08-24T00:44:50;19.10;99.90
16995;DHT22;8614;48.522;9.206;2023-08-24T00:47:18;19.00;99.90
16995;DHT22;8614;48.522;9.206;2023-08-24T00:49:45;19.00;99.90
16995;DHT22;8614;48.522;9.206;2023-08-24T00:52:13;19.00;99.90
16995;DHT22;8614;48.522;9.206;2023-08-24T00:54:41;18.90;99.90
16995;DHT22;8614;48.522;9.206;2023-08-24T00:57:08;19.00;99.90
16995;DHT22;8614;48.522;9.206;2023-08-24T00:59:34;19.00;99.90
16995;DHT22;8614;48.522;9.206;2023-08-24T01:02:02;19.00;99.90
16995;DHT22;8614;48.522;9.206;2023-08-24T01:04:31;18.90;99.90
16995;DHT22;8614;48.522;9.206;2023-08-24T01:06:58;18.90;99.90
16995;DHT22;8614;48.522;9.206;2023-08-24T01:09:25;18.90;99.90
16995;DHT22;8614;48.522;9.206;2023-08-24T01:11:58;18.90;99.90
16995;DHT22;8614;48.522;9.206;2023-08-24T01:14:34;18.80;99.90
16995;DHT22;8614;48.522;9.206;2023-08-24T01:17:05;18.80;99.90
16995;DHT22;8614;48.522;9.206;2023-08-24T01:19:41;18.80;99.90
16995;DHT22;8614;48.522;9.206;2023-08-24T01:22:20;18.80;99.90
16995;DHT22;8614;48.522;9.206;2023-08-24T01:24:53;18.70;99.90
16995;DHT22;8614;48.522;9.206;2023-08-24T01:27:23;18.70;99.90
16995;DHT22;8614;48.522;9.206;2023-08-24T01:29:51;18.70;99.90
16995;DHT22;8614;48.522;9.206;2023-08-24T01:32:24;18.80;99.90
16995;DHT22;8614;48.522;9.206;2023-08-24T01:34:51;18.70;99.90
16995;DHT22;8614;48.522;9.206;2023-08-24T01:37:18;18.70;99.90
16995;DHT22;8614;48.522;9.206;2023-08-24T01:39:50;18.60;99.90
16995;DHT22;8614;48.522;9.206;2023-08-24T01:42:23;18.60;99.90
16995;DHT22;8614;48.522;9.206;2023-08-24T01:44:56;18.60;99.90
16995;DHT22;8614;48.522;9.206;2023-08-24T01:47:25;18.60;99.90
16995;DHT22;8614;48.522;9.206;2023-08-24T01:49:52;18.60;99.90
16995;DHT22;8614;48.522;9.206;2023-08-24T01:52:20;18.60;99.90
16995;DHT22;8614;48.522;9.206;2023-08-24T01:54:48;18.60;99.90
16995;DHT22;8614;48.522;9.206;2023-08-24T01:57:14;18.50;99.90
16995;DHT22;8614;48.522;9.206;2023-08-24T01:59:43;18.50;99.90
16995;DHT22;8614;48.522;9.206;2023-08-24T02:02:10;18.50;99.90
16995;DHT22;8614;48.522;9.206;2023-08-24T02:04:36;18.50;99.90
16995;DHT22;8614;48.522;9.206;2023-08-24T02:07:03;18.50;99.90
16995;DHT22;8614;48.522;9.206;2023-08-24T02:09:30;18.40;99.90
16995;DHT22;8614;48.522;9.206;2023-08-24T02:11:57;18.40;99.90
16995;DHT22;8614;48.522;9.206;2023-08-24T02:14:24;18.40;99.90
16995;DHT22;8614;48.522;9.206;2023-08-24T02:16:52;18.40;99.90
16995;DHT22;8614;48.522;9.206;2023-08-24T02:19:19;18.30;99.90
16995;DHT22;8614;48.522;9.206;2023-08-24T02:21:46;18.40;99.90
16995;DHT22;8614;48.522;9.206;2023-08-24T02:24:13;18.30;99.90
16995;DHT22;8614;48.522;9.206;2023-08-24T02:26:40;18.30;99.90
16995;DHT22;8614;48.522;9.206;2023-08-24T02:29:07;18.30;99.90
16995;DHT22;8614;48.522;9.206;2023-08-24T02:31:34;18.30;99.90
16995;DHT22;8614;48.522;9.206;2023-08-24T02:34:02;18.30;99.90
16995;DHT22;8614;48.522;9.206;2023-08-24T02:36:29;18.30;99.90
16995;DHT22;8614;48.522;9.206;2023-08-24T02:38:58;18.20;99.90
16995;DHT22;8614;48.522;9.206;2023-08-24T02:41:26;18.20;99.90
16995;DHT22;8614;48.522;9.206;2023-08-24T02:43:55;18.20;99.90
16995;DHT22;8614;48.522;9.206;2023-08-24T02:46:22;18.20;99.90
16995;DHT22;8614;48.522;9.206;2023-08-24T02:48:49;18.20;99.90
16995;DHT22;8614;48.522;9.206;2023-08-24T02:51:21;18.10;99.90
16995;DHT22;8614;48.522;9.206;2023-08-24T02:53:48;18.10;99.90
16995;DHT22;8614;48.522;9.206;2023-08-24T02:56:15;18.10;99.90
16995;DHT22;8614;48.522;9.206;2023-08-24T02:58:42;18.10;99.90
16995;DHT22;8614;48.522;9.206;2023-08-24T03:01:08;18.10;99.90
16995;DHT22;8614;48.522;9.206;2023-08-24T03:03:36;18.10;99.90
16995;DHT22;8614;48.522;9.206;2023-08-24T03:06:05;18.10;99.90
16995;DHT22;8614;48.522;9.206;2023-08-24T03:08:34;18.20;99.90
16995;DHT22;8614;48.522;9.206;2023-08-24T03:11:02;18.20;99.90
16995;DHT22;8614;48.522;9.206;2023-08-24T03:13:30;18.20;99.90
16995;DHT22;8614;48.522;9.206;2023-08-24T03:15:57;18.30;99.90
16995;DHT22;8614;48.522;9.206;2023-08-24T03:18:27;18.30;99.90
16995;DHT22;8614;48.522;9.206;2023-08-24T03:20:56;18.30;99.90
16995;DHT22;8614;48.522;9.206;2023-08-24T03:23:23;18.30;99.90
16995;DHT22;8614;48.522;9.206;2023-08-24T03:25:51;18.20;99.90
16995;DHT22;8614;48.522;9.206;2023-08-24T03:28:19;18.30;99.90
16995;DHT22;8614;48.522;9.206;2023-08-24T03:30:47;18.20;99.90
16995;DHT22;8614;48.522;9.206;2023-08-24T03:33:15;18.10;99.90
16995;DHT22;8614;48.522;9.206;2023-08-24T03:35:42;18.10;99.90
16995;DHT22;8614;48.522;9.206;2023-08-24T03:38:09;18.10;99.90
16995;DHT22;8614;48.522;9.206;2023-08-24T03:40:36;18.10;99.90
16995;DHT22;8614;48.522;9.206;2023-08-24T03:43:05;18.10;99.90
16995;DHT22;8614;48.522;9.206;2023-08-24T03:45:32;18.10;99.90
16995;DHT22;8614;48.522;9.206;2023-08-24T03:47:59;18.00;99.90
16995;DHT22;8614;48.522;9.206;2023-08-24T03:50:34;18.00;99.90
16995;DHT22;8614;48.522;9.206;2023-08-24T03:53:03;18.00;99.90
16995;DHT22;8614;48.522;9.206;2023-08-24T03:55:30;18.00;99.90
16995;DHT22;8614;48.522;9.206;2023-08-24T03:57:58;18.00;99.90
16995;DHT22;8614;48.522;9.206;2023-08-24T04:00:27;18.00;99.90
16995;DHT22;8614;48.522;9.206;2023-08-24T04:02:54;18.00;99.90
16995;DHT22;8614;48.522;9.206;2023-08-24T04:05:24;18.00;99.90
16995;DHT22;8614;48.522;9.206;2023-08-24T04:07:52;18.00;99.90
16995;DHT22;8614;48.522;9.206;2023-08-24T04:10:19;18.00;99.90
16995;DHT22;8614;48.522;9.206;2023-08-24T04:12:46;18.00;99.90
16995;DHT22;8614;48.522;9.206;2023-08-24T04:15:13;18.00;99.90
16995;DHT22;8614;48.522;9.206;2023-08-24T04:17:41;18.10;99.90
16995;DHT22;8614;48.522;9.206;2023-08-24T04:20:09;18.10;99.90
16995;DHT22;8614;48.522;9.206;2023-08-24T04:22:36;18.10;99.90
16995;DHT22;8614;48.522;9.206;2023-08-24T04:25:04;18.10;99.90
16995;DHT22;8614;48.522;9.206;2023-08-24T04:27:31;18.10;99.90
16995;DHT22;8614;48.522;9.206;2023-08-24T04:29:59;18.20;99.90
16995;DHT22;8614;48.522;9.206;2023-08-24T04:32:26;18.20;99.90
16995;DHT22;8614;48.522;9.206;2023-08-24T04:34:54;18.20;99.90
16995;DHT22;8614;48.522;9.206;2023-08-24T04:37:21;18.20;99.90
16995;DHT22;8614;48.522;9.206;2023-08-24T04:39:48;18.30;99.90
16995;DHT22;8614;48.522;9.206;2023-08-24T04:42:15;18.20;99.90
16995;DHT22;8614;48.522;9.206;2023-08-24T04:44:42;18.30;99.90
16995;DHT22;8614;48.522;9.206;2023-08-24T04:47:08;18.20;99.90
16995;DHT22;8614;48.522;9.206;2023-08-24T04:49:36;18.20;99.90
16995;DHT22;8614;48.522;9.206;2023-08-24T04:52:04;18.10;99.90
16995;DHT22;8614;48.522;9.206;2023-08-24T04:54:32;18.10;99.90
16995;DHT22;8614;48.522;9.206;2023-08-24T04:56:59;18.10;99.90
16995;DHT22;8614;48.522;9.206;2023-08-24T04:59:25;18.20;99.90
16995;DHT22;8614;48.522;9.206;2023-08-24T05:01:52;18.20;99.90
16995;DHT22;8614;48.522;9.206;2023-08-24T05:04:19;18.30;99.90
16995;DHT22;8614;48.522;9.206;2023-08-24T05:06:46;18.30;99.90
16995;DHT22;8614;48.522;9.206;2023-08-24T05:09:14;18.30;99.90
16995;DHT22;8614;48.522;9.206;2023-08-24T05:11:41;18.30;99.90
16995;DHT22;8614;48.522;9.206;2023-08-24T05:14:08;18.40;99.90
16995;DHT22;8614;48.522;9.206;2023-08-24T05:16:34;18.40;99.90
16995;DHT22;8614;48.522;9.206;2023-08-24T05:19:01;18.50;99.90
16995;DHT22;8614;48.522;9.206;2023-08-24T05:21:28;18.50;99.90
16995;DHT22;8614;48.522;9.206;2023-08-24T05:23:55;18.60;99.90
16995;DHT22;8614;48.522;9.206;2023-08-24T05:26:23;18.60;99.90
16995;DHT22;8614;48.522;9.206;2023-08-24T05:28:52;18.70;99.90
16995;DHT22;8614;48.522;9.206;2023-08-24T05:31:18;18.80;99.90
16995;DHT22;8614;48.522;9.206;2023-08-24T05:33:45;18.90;99.90
16995;DHT22;8614;48.522;9.206;2023-08-24T05:36:13;19.00;99.90
16995;DHT22;8614;48.522;9.206;2023-08-24T05:38:40;19.20;99.90
16995;DHT22;8614;48.522;9.206;2023-08-24T05:41:11;19.30;99.90
16995;DHT22;8614;48.522;9.206;2023-08-24T05:43:40;19.40;99.90
16995;DHT22;8614;48.522;9.206;2023-08-24T05:46:06;19.50;99.90
16995;DHT22;8614;48.522;9.206;2023-08-24T05:48:33;19.60;99.90
16995;DHT22;8614;48.522;9.206;2023-08-24T05:51:00;19.60;99.90
16995;DHT22;8614;48.522;9.206;2023-08-24T05:53:27;19.70;99.90
16995;DHT22;8614;48.522;9.206;2023-08-24T05:55:57;19.80;99.90
16995;DHT22;8614;48.522;9.206;2023-08-24T05:58:24;19.90;99.90
16995;DHT22;8614;48.522;9.206;2023-08-24T06:00:57;20.00;99.90
16995;DHT22;8614;48.522;9.206;2023-08-24T06:03:24;20.20;99.90
16995;DHT22;8614;48.522;9.206;2023-08-24T06:05:51;20.40;99.90
16995;DHT22;8614;48.522;9.206;2023-08-24T06:08:18;20.70;99.90
16995;DHT22;8614;48.522;9.206;2023-08-24T06:10:45;20.80;99.90
16995;DHT22;8614;48.522;9.206;2023-08-24T06:13:12;20.90;99.90
16995;DHT22;8614;48.522;9.206;2023-08-24T06:15:40;20.90;99.90
16995;DHT22;8614;48.522;9.206;2023-08-24T06:18:09;20.80;99.90
16995;DHT22;8614;48.522;9.206;2023-08-24T06:20:36;20.70;99.90
16995;DHT22;8614;48.522;9.206;2023-08-24T06:23:03;20.70;99.90
16995;DHT22;8614;48.522;9.206;2023-08-24T06:25:30;20.70;99.90
16995;DHT22;8614;48.522;9.206;2023-08-24T06:27:58;20.60;99.90
16995;DHT22;8614;48.522;9.206;2023-08-24T06:30:25;20.60;99.90
16995;DHT22;8614;48.522;9.206;2023-08-24T06:33:09;20.60;99.90
16995;DHT22;8614;48.522;9.206;2023-08-24T06:35:37;20.60;99.90
16995;DHT22;8614;48.522;9.206;2023-08-24T06:38:04;20.60;99.90
16995;DHT22;8614;48.522;9.206;2023-08-24T06:40:31;20.60;99.90
16995;DHT22;8614;48.522;9.206;2023-08-24T06:42:58;20.70;99.90
16995;DHT22;8614;48.522;9.206;2023-08-24T06:45:24;20.70;99.90
16995;DHT22;8614;48.522;9.206;2023-08-24T06:47:51;20.80;99.90
16995;DHT22;8614;48.522;9.206;2023-08-24T06:50:20;20.90;99.90
16995;DHT22;8614;48.522;9.206;2023-08-24T06:52:47;20.90;99.90
16995;DHT22;8614;48.522;9.206;2023-08-24T06:55:14;20.90;99.90
16995;DHT22;8614;48.522;9.206;2023-08-24T06:57:41;20.90;99.90
16995;DHT22;8614;48.522;9.206;2023-08-24T07:00:09;20.90;99.90
16995;DHT22;8614;48.522;9.206;2023-08-24T07:02:38;20.90;99.90
16995;DHT22;8614;48.522;9.206;2023-08-24T07:05:06;20.90;99.90
16995;DHT22;8614;48.522;9.206;2023-08-24T07:07:35;21.00;99.90
16995;DHT22;8614;48.522;9.206;2023-08-24T07:10:02;21.00;99.90
16995;DHT22;8614;48.522;9.206;2023-08-24T07:12:30;21.10;99.90
16995;DHT22;8614;48.522;9.206;2023-08-24T07:14:56;21.10;99.90
16995;DHT22;8614;48.522;9.206;2023-08-24T07:17:23;21.10;99.90
16995;DHT22;8614;48.522;9.206;2023-08-24T07:19:50;21.10;99.90
16995;DHT22;8614;48.522;9.206;2023-08-24T07:22:17;21.20;99.90
16995;DHT22;8614;48.522;9.206;2023-08-24T07:24:46;21.30;99.90
16995;DHT22;8614;48.522;9.206;2023-08-24T07:27:17;21.50;99.90
16995;DHT22;8614;48.522;9.206;2023-08-24T07:29:44;21.60;99.90
16995;DHT22;8614;48.522;9.206;2023-08-24T07:32:11;21.70;99.90
16995;DHT22;8614;48.522;9.206;2023-08-24T07:34:38;21.80;99.90
16995;DHT22;8614;48.522;9.206;2023-08-24T07:37:05;21.90;99.90
16995;DHT22;8614;48.522;9.206;2023-08-24T07:39:32;22.00;99.90
16995;DHT22;8614;48.522;9.206;2023-08-24T07:42:00;22.20;99.90
16995;DHT22;8614;48.522;9.206;2023-08-24T07:44:28;22.50;99.90
16995;DHT22;8614;48.522;9.206;2023-08-24T07:46:55;22.60;99.90
16995;DHT22;8614;48.522;9.206;2023-08-24T07:49:22;22.60;99.90
16995;DHT22;8614;48.522;9.206;2023-08-24T07:51:49;22.70;99.90
16995;DHT22;8614;48.522;9.206;2023-08-24T07:54:16;22.70;99.90
16995;DHT22;8614;48.522;9.206;2023-08-24T07:56:43;22.70;99.90
16995;DHT22;8614;48.522;9.206;2023-08-24T07:59:11;23.20;99.90
16995;DHT22;8614;48.522;9.206;2023-08-24T08:01:38;23.80;99.90
16995;DHT22;8614;48.522;9.206;2023-08-24T08:04:05;24.40;99.90
16995;DHT22;8614;48.522;9.206;2023-08-24T08:06:32;24.90;99.90
16995;DHT22;8614;48.522;9.206;2023-08-24T08:08:58;25.40;99.90
16995;DHT22;8614;48.522;9.206;2023-08-24T08:11:26;25.80;99.90
16995;DHT22;8614;48.522;9.206;2023-08-24T08:13:52;26.30;99.90
16995;DHT22;8614;48.522;9.206;2023-08-24T08:16:21;26.70;99.90
16995;DHT22;8614;48.522;9.206;2023-08-24T08:18:47;26.90;99.90
16995;DHT22;8614;48.522;9.206;2023-08-24T08:21:15;27.30;99.90
16995;DHT22;8614;48.522;9.206;2023-08-24T08:23:44;27.50;99.90
16995;DHT22;8614;48.522;9.206;2023-08-24T08:26:12;28.00;99.90
16995;DHT22;8614;48.522;9.206;2023-08-24T08:28:39;28.40;99.90
16995;DHT22;8614;48.522;9.206;2023-08-24T08:31:06;28.60;99.90
16995;DHT22;8614;48.522;9.206;2023-08-24T08:33:34;28.70;99.90
16995;DHT22;8614;48.522;9.206;2023-08-24T08:36:01;28.80;99.90
16995;DHT22;8614;48.522;9.206;2023-08-24T08:38:28;28.90;99.90
16995;DHT22;8614;48.522;9.206;2023-08-24T08:40:56;29.10;99.90
16995;DHT22;8614;48.522;9.206;2023-08-24T08:43:28;29.10;99.90
16995;DHT22;8614;48.522;9.206;2023-08-24T08:45:56;29.20;99.90
16995;DHT22;8614;48.522;9.206;2023-08-24T08:48:23;29.40;99.90
16995;DHT22;8614;48.522;9.206;2023-08-24T08:50:52;29.70;99.90
16995;DHT22;8614;48.522;9.206;2023-08-24T08:53:22;29.90;99.90
16995;DHT22;8614;48.522;9.206;2023-08-24T08:55:51;29.90;99.90
16995;DHT22;8614;48.522;9.206;2023-08-24T08:58:19;29.70;99.90
16995;DHT22;8614;48.522;9.206;2023-08-24T09:00:47;29.70;99.90
16995;DHT22;8614;48.522;9.206;2023-08-24T09:03:17;29.60;99.90
16995;DHT22;8614;48.522;9.206;2023-08-24T09:05:45;29.40;99.90
16995;DHT22;8614;48.522;9.206;2023-08-24T09:08:16;29.20;99.90
16995;DHT22;8614;48.522;9.206;2023-08-24T09:10:43;29.30;99.90
16995;DHT22;8614;48.522;9.206;2023-08-24T09:13:10;29.30;99.90
16995;DHT22;8614;48.522;9.206;2023-08-24T09:15:37;29.50;99.90
16995;DHT22;8614;48.522;9.206;2023-08-24T09:18:04;29.30;99.90
16995;DHT22;8614;48.522;9.206;2023-08-24T09:20:31;29.30;99.90
16995;DHT22;8614;48.522;9.206;2023-08-24T09:22:58;29.50;99.90
16995;DHT22;8614;48.522;9.206;2023-08-24T09:25:26;29.30;99.90
16995;DHT22;8614;48.522;9.206;2023-08-24T09:27:58;29.30;99.90
16995;DHT22;8614;48.522;9.206;2023-08-24T09:30:29;29.30;99.90
16995;DHT22;8614;48.522;9.206;2023-08-24T09:33:01;29.50;99.90
16995;DHT22;8614;48.522;9.206;2023-08-24T09:35:28;29.50;99.90
16995;DHT22;8614;48.522;9.206;2023-08-24T09:37:55;29.40;99.90
16995;DHT22;8614;48.522;9.206;2023-08-24T09:40:25;29.60;99.90
16995;DHT22;8614;48.522;9.206;2023-08-24T09:42:52;29.90;99.90
16995;DHT22;8614;48.522;9.206;2023-08-24T09:45:19;30.00;99.90
16995;DHT22;8614;48.522;9.206;2023-08-24T09:47:49;30.40;99.90
16995;DHT22;8614;48.522;9.206;2023-08-24T09:50:15;30.30;99.90
16995;DHT22;8614;48.522;9.206;2023-08-24T09:52:42;30.50;99.90
16995;DHT22;8614;48.522;9.206;2023-08-24T09:55:11;30.80;99.90
16995;DHT22;8614;48.522;9.206;2023-08-24T09:57:42;30.70;99.90
16995;DHT22;8614;48.522;9.206;2023-08-24T10:00:09;30.80;99.90
16995;DHT22;8614;48.522;9.206;2023-08-24T10:02:38;30.90;99.90
16995;DHT22;8614;48.522;9.206;2023-08-24T10:05:06;31.20;99.90
16995;DHT22;8614;48.522;9.206;2023-08-24T10:07:35;31.10;99.90
16995;DHT22;8614;48.522;9.206;2023-08-24T10:10:04;31.30;99.90
16995;DHT22;8614;48.522;9.206;2023-08-24T10:12:41;31.30;99.90
16995;DHT22;8614;48.522;9.206;2023-08-24T10:15:08;30.90;99.90
16995;DHT22;8614;48.522;9.206;2023-08-24T10:17:38;30.80;99.90
16995;DHT22;8614;48.522;9.206;2023-08-24T10:20:07;30.70;99.90
16995;DHT22;8614;48.522;9.206;2023-08-24T10:22:35;31.00;99.90
16995;DHT22;8614;48.522;9.206;2023-08-24T10:25:03;31.00;99.90
16995;DHT22;8614;48.522;9.206;2023-08-24T10:27:30;31.20;99.90
16995;DHT22;8614;48.522;9.206;2023-08-24T10:29:58;31.40;99.90
16995;DHT22;8614;48.522;9.206;2023-08-24T10:32:26;31.30;99.90
16995;DHT22;8614;48.522;9.206;2023-08-24T10:34:53;31.50;99.90
16995;DHT22;8614;48.522;9.206;2023-08-24T10:37:25;31.60;99.90
16995;DHT22;8614;48.522;9.206;2023-08-24T10:39:52;31.60;99.90
16995;DHT22;8614;48.522;9.206;2023-08-24T10:42:19;31.20;99.90
16995;DHT22;8614;48.522;9.206;2023-08-24T10:44:47;31.10;99.90
16995;DHT22;8614;48.522;9.206;2023-08-24T10:47:19;30.80;99.90
16995;DHT22;8614;48.522;9.206;2023-08-24T10:49:58;30.80;99.90
16995;DHT22;8614;48.522;9.206;2023-08-24T10:52:30;30.80;99.90
16995;DHT22;8614;48.522;9.206;2023-08-24T10:54:57;30.70;99.90
16995;DHT22;8614;48.522;9.206;2023-08-24T10:57:25;30.90;99.90
16995;DHT22;8614;48.522;9.206;2023-08-24T11:00:03;31.00;99.90
16995;DHT22;8614;48.522;9.206;2023-08-24T11:02:41;31.00;99.90
16995;DHT22;8614;48.522;9.206;2023-08-24T11:05:15;31.10;99.90
16995;DHT22;8614;48.522;9.206;2023-08-24T11:07:50;31.10;99.90
16995;DHT22;8614;48.522;9.206;2023-08-24T11:10:17;31.10;99.90
16995;DHT22;8614;48.522;9.206;2023-08-24T11:13:07;31.00;99.90
16995;DHT22;8614;48.522;9.206;2023-08-24T11:15:36;30.70;99.90
16995;DHT22;8614;48.522;9.206;2023-08-24T11:18:19;30.90;99.90
16995;DHT22;8614;48.522;9.206;2023-08-24T11:20:47;30.80;99.90
16995;DHT22;8614;48.522;9.206;2023-08-24T11:23:15;30.90;99.90
16995;DHT22;8614;48.522;9.206;2023-08-24T11:25:42;31.00;99.90
16995;DHT22;8614;48.522;9.206;2023-08-24T11:28:09;31.00;99.90
16995;DHT22;8614;48.522;9.206;2023-08-24T11:30:36;31.20;99.90
16995;DHT22;8614;48.522;9.206;2023-08-24T11:33:04;31.30;99.90
16995;DHT22;8614;48.522;9.206;2023-08-24T11:35:36;31.40;99.90
16995;DHT22;8614;48.522;9.206;2023-08-24T11:38:03;31.30;99.90
16995;DHT22;8614;48.522;9.206;2023-08-24T11:40:30;31.30;99.90
16995;DHT22;8614;48.522;9.206;2023-08-24T11:42:57;31.40;99.90
16995;DHT22;8614;48.522;9.206;2023-08-24T11:45:24;31.60;99.90
16995;DHT22;8614;48.522;9.206;2023-08-24T11:47:58;31.60;99.90
16995;DHT22;8614;48.522;9.206;2023-08-24T11:50:25;31.60;99.90
16995;DHT22;8614;48.522;9.206;2023-08-24T11:52:54;31.70;99.90
16995;DHT22;8614;48.522;9.206;2023-08-24T11:55:21;31.70;99.90
16995;DHT22;8614;48.522;9.206;2023-08-24T11:57:48;31.70;99.90
16995;DHT22;8614;48.522;9.206;2023-08-24T12:00:15;31.80;99.90
16995;DHT22;8614;48.522;9.206;2023-08-24T12:02:43;31.80;99.90
16995;DHT22;8614;48.522;9.206;2023-08-24T12:05:20;31.80;99.90
16995;DHT22;8614;48.522;9.206;2023-08-24T12:07:47;31.80;99.90
16995;DHT22;8614;48.522;9.206;2023-08-24T12:10:16;31.80;99.90
16995;DHT22;8614;48.522;9.206;2023-08-24T12:12:43;32.00;99.90
16995;DHT22;8614;48.522;9.206;2023-08-24T12:15:15;32.10;99.90
16995;DHT22;8614;48.522;9.206;2023-08-24T12:17:43;32.20;99.90
16995;DHT22;8614;48.522;9.206;2023-08-24T12:20:17;32.40;99.90
16995;DHT22;8614;48.522;9.206;2023-08-24T12:22:49;32.50;99.90
16995;DHT22;8614;48.522;9.206;2023-08-24T12:25:21;32.60;99.90
16995;DHT22;8614;48.522;9.206;2023-08-24T12:27:48;32.60;99.90
16995;DHT22;8614;48.522;9.206;2023-08-24T12:30:15;32.70;99.90
16995;DHT22;8614;48.522;9.206;2023-08-24T12:32:42;32.80;99.90
16995;DHT22;8614;48.522;9.206;2023-08-24T12:35:09;32.80;99.90
16995;DHT22;8614;48.522;9.206;2023-08-24T12:37:36;32.80;99.90
16995;DHT22;8614;48.522;9.206;2023-08-24T12:40:04;32.90;99.90
16995;DHT22;8614;48.522;9.206;2023-08-24T12:42:33;32.90;99.90
16995;DHT22;8614;48.522;9.206;2023-08-24T12:45:00;32.90;99.90
16995;DHT22;8614;48.522;9.206;2023-08-24T12:47:27;32.80;99.90
16995;DHT22;8614;48.522;9.206;2023-08-24T12:49:53;32.80;99.90
16995;DHT22;8614;48.522;9.206;2023-08-24T12:52:22;32.80;99.90
16995;DHT22;8614;48.522;9.206;2023-08-24T12:54:49;32.90;99.90
16995;DHT22;8614;48.522;9.206;2023-08-24T12:57:16;33.00;99.90
16995;DHT22;8614;48.522;9.206;2023-08-24T12:59:44;33.00;99.90
16995;DHT22;8614;48.522;9.206;2023-08-24T13:02:12;33.00;99.90
16995;DHT22;8614;48.522;9.206;2023-08-24T13:04:38;33.00;99.90
16995;DHT22;8614;48.522;9.206;2023-08-24T13:07:05;33.10;99.90
16995;DHT22;8614;48.522;9.206;2023-08-24T13:09:32;33.10;99.90
16995;DHT22;8614;48.522;9.206;2023-08-24T13:11:59;33.10;99.90
16995;DHT22;8614;48.522;9.206;2023-08-24T13:14:25;33.20;99.90
16995;DHT22;8614;48.522;9.206;2023-08-24T13:16:54;33.20;99.90
16995;DHT22;8614;48.522;9.206;2023-08-24T13:19:20;33.30;99.90
16995;DHT22;8614;48.522;9.206;2023-08-24T13:21:47;33.40;99.90
16995;DHT22;8614;48.522;9.206;2023-08-24T13:24:14;33.30;99.90
16995;DHT22;8614;48.522;9.206;2023-08-24T13:26:41;33.30;99.90
16995;DHT22;8614;48.522;9.206;2023-08-24T13:29:07;33.30;99.90
16995;DHT22;8614;48.522;9.206;2023-08-24T13:31:40;33.30;99.90
16995;DHT22;8614;48.522;9.206;2023-08-24T13:34:13;33.20;99.90
16995;DHT22;8614;48.522;9.206;2023-08-24T13:36:40;33.10;99.90
16995;DHT22;8614;48.522;9.206;2023-08-24T13:39:07;33.10;99.90
16995;DHT22;8614;48.522;9.206;2023-08-24T13:41:34;33.20;99.90
16995;DHT22;8614;48.522;9.206;2023-08-24T13:44:00;33.20;99.90
16995;DHT22;8614;48.522;9.206;2023-08-24T13:46:27;33.20;99.90
16995;DHT22;8614;48.522;9.206;2023-08-24T13:48:54;33.30;99.90
16995;DHT22;8614;48.522;9.206;2023-08-24T13:51:22;33.30;99.90
16995;DHT22;8614;48.522;9.206;2023-08-24T13:53:49;33.30;99.90
16995;DHT22;8614;48.522;9.206;2023-08-24T13:56:16;33.30;99.90
16995;DHT22;8614;48.522;9.206;2023-08-24T13:58:43;33.10;99.90
16995;DHT22;8614;48.522;9.206;2023-08-24T14:01:09;32.90;99.90
16995;DHT22;8614;48.522;9.206;2023-08-24T14:03:38;32.70;99.90
16995;DHT22;8614;48.522;9.206;2023-08-24T14:06:05;32.60;99.90
16995;DHT22;8614;48.522;9.206;2023-08-24T14:08:33;32.60;99.90
16995;DHT22;8614;48.522;9.206;2023-08-24T14:11:00;32.60;99.90
16995;DHT22;8614;48.522;9.206;2023-08-24T14:13:27;32.70;99.90
16995;DHT22;8614;48.522;9.206;2023-08-24T14:15:55;32.70;99.90
16995;DHT22;8614;48.522;9.206;2023-08-24T14:18:22;32.90;99.90
16995;DHT22;8614;48.522;9.206;2023-08-24T14:20:49;33.00;99.90
16995;DHT22;8614;48.522;9.206;2023-08-24T14:23:16;33.20;99.90
16995;DHT22;8614;48.522;9.206;2023-08-24T14:25:46;33.30;99.90
16995;DHT22;8614;48.522;9.206;2023-08-24T14:28:13;33.40;99.90
16995;DHT22;8614;48.522;9.206;2023-08-24T14:30:40;33.50;99.90
16995;DHT22;8614;48.522;9.206;2023-08-24T14:33:10;33.50;99.90
16995;DHT22;8614;48.522;9.206;2023-08-24T14:35:37;33.50;99.90
16995;DHT22;8614;48.522;9.206;2023-08-24T14:38:03;33.50;99.90
16995;DHT22;8614;48.522;9.206;2023-08-24T14:40:30;33.50;99.90
16995;DHT22;8614;48.522;9.206;2023-08-24T14:42:58;33.50;99.90
16995;DHT22;8614;48.522;9.206;2023-08-24T14:45:25;33.40;99.90
16995;DHT22;8614;48.522;9.206;2023-08-24T14:47:52;33.30;99.90
16995;DHT22;8614;48.522;9.206;2023-08-24T14:50:19;33.30;99.90
16995;DHT22;8614;48.522;9.206;2023-08-24T14:52:45;33.30;99.90
16995;DHT22;8614;48.522;9.206;2023-08-24T14:55:12;33.30;99.90
16995;DHT22;8614;48.522;9.206;2023-08-24T14:57:39;33.30;99.90
16995;DHT22;8614;48.522;9.206;2023-08-24T15:00:08;33.30;99.90
16995;DHT22;8614;48.522;9.206;2023-08-24T15:02:36;33.40;99.90
16995;DHT22;8614;48.522;9.206;2023-08-24T15:05:03;33.40;99.90
16995;DHT22;8614;48.522;9.206;2023-08-24T15:07:30;33.40;99.90
16995;DHT22;8614;48.522;9.206;2023-08-24T15:09:57;33.30;99.90
16995;DHT22;8614;48.522;9.206;2023-08-24T15:12:24;33.20;99.90
16995;DHT22;8614;48.522;9.206;2023-08-24T15:14:58;33.10;99.90
16995;DHT22;8614;48.522;9.206;2023-08-24T15:17:29;32.90;99.90
16995;DHT22;8614;48.522;9.206;2023-08-24T15:19:56;32.60;99.90
16995;DHT22;8614;48.522;9.206;2023-08-24T15:22:23;32.50;99.90
16995;DHT22;8614;48.522;9.206;2023-08-24T15:24:51;32.40;99.90
16995;DHT22;8614;48.522;9.206;2023-08-24T15:27:18;32.30;99.90
16995;DHT22;8614;48.522;9.206;2023-08-24T15:29:45;32.00;99.90
16995;DHT22;8614;48.522;9.206;2023-08-24T15:32:12;31.80;99.90
16995;DHT22;8614;48.522;9.206;2023-08-24T15:34:40;31.60;99.90
16995;DHT22;8614;48.522;9.206;2023-08-24T15:37:07;31.30;99.90
16995;DHT22;8614;48.522;9.206;2023-08-24T15:39:36;31.00;99.90
16995;DHT22;8614;48.522;9.206;2023-08-24T15:42:04;30.90;99.90
16995;DHT22;8614;48.522;9.206;2023-08-24T15:44:32;30.50;99.90
16995;DHT22;8614;48.522;9.206;2023-08-24T15:47:00;30.10;99.90
16995;DHT22;8614;48.522;9.206;2023-08-24T15:49:27;30.00;99.90